Weather reports worldwide

Advertisment
Cartagena, Spain (8434): temperature & dewpoint: 14.06.2019 14:00:00 - 20.06.2019 14:00:00 (CEST)Cartagena, Spain (8434): wind speed & gusts: 14.06.2019 14:00:00 - 20.06.2019 14:00:00 (CEST)Cartagena, Spain (8434): wind direction: 14.06.2019 14:00:00 - 20.06.2019 14:00:00 (CEST)Cartagena, Spain (8434): precipitation: 14.06.2019 14:00:00 - 20.06.2019 14:00:00 (CEST)
Date & Time tt [°C] td [°C] ff [km/h] ff [kn] fx [km/h] fx [kn] dd rr [mm]
20.06.2019 14:00:00 - - - - - - - -
20.06.2019 13:00:00 23,7 19,8 8 5 20 11 S 0,0
20.06.2019 12:00:00 23,1 19,3 9 5 19 11 SSE 0,0
20.06.2019 11:00:00 23,2 18,9 9 5 18 10 SSE 0,0
20.06.2019 10:00:00 23,1 18,6 6 4 14 7 SSE 0,0
20.06.2019 09:00:00 21,6 19,2 7 4 15 8 SSE 0,0
20.06.2019 08:00:00 20,6 18,9 3 2 10 5 S -
20.06.2019 07:00:00 20,2 18,5 1 1 13 7 W 0,0
20.06.2019 06:00:00 20,2 18,3 4 2 9 5 S 0,0
20.06.2019 05:00:00 19,9 17,7 0 0 5 3 N 0,0
20.06.2019 04:00:00 20,2 17,8 3 2 10 6 WNW 0,0
20.06.2019 03:00:00 20,5 17,9 2 1 16 9 S 0,0
20.06.2019 02:00:00 20,7 18,1 8 5 16 9 S -
20.06.2019 01:00:00 20,9 17,9 9 5 21 12 SSW 0,0
20.06.2019 00:00:00 21,1 17,7 10 5 19 10 S 0,0
19.06.2019 23:00:00 21,5 17,7 7 4 19 11 S 0,0
19.06.2019 22:00:00 21,3 17,5 10 5 17 9 S 0,0
19.06.2019 21:00:00 22,3 18,1 5 3 16 9 S 0,0
19.06.2019 20:00:00 22,6 17,7 8 4 22 12 SSE -
19.06.2019 19:00:00 23,0 18,5 8 4 20 11 S 0,0
19.06.2019 18:00:00 23,2 18,5 9 5 22 12 S 0,0
19.06.2019 17:00:00 23,8 18,9 7 4 26 14 S 0,0
19.06.2019 16:00:00 - - - - - - - -
19.06.2019 15:00:00 - - - - - - - -
19.06.2019 14:00:00 23,2 18,5 10 5 - - SSW -
19.06.2019 13:00:00 - - - - - - - -
19.06.2019 12:00:00 - - - - - - - -
19.06.2019 11:00:00 - - - - - - - -
19.06.2019 10:00:00 - - - - - - - -
19.06.2019 09:00:00 - - - - - - - -
19.06.2019 08:00:00 - - - - - - - -
19.06.2019 07:00:00 - - - - - - - -
19.06.2019 06:00:00 - - - - - - - -
19.06.2019 05:00:00 - - - - - - - -
19.06.2019 04:00:00 - - - - - - - -
19.06.2019 03:00:00 - - - - - - - -
19.06.2019 02:00:00 - - - - - - - -
19.06.2019 01:00:00 - - - - - - - -
19.06.2019 00:00:00 - - - - - - - -
18.06.2019 23:00:00 - - - - - - - -
18.06.2019 22:00:00 - - - - - - - -
18.06.2019 21:00:00 - - - - - - - -
18.06.2019 20:00:00 - - - - - - - -
18.06.2019 19:00:00 23,6 18,3 5 3 21 11 SSW 0,0
18.06.2019 18:00:00 23,1 17,8 9 5 24 13 S 0,0
18.06.2019 17:00:00 23,4 18,1 10 5 22 12 S 0,0
18.06.2019 16:00:00 23,1 17,8 9 5 25 14 S 0,0
18.06.2019 15:00:00 22,8 17,5 10 6 21 12 S 0,0
18.06.2019 14:00:00 22,9 17,4 7 4 23 12 S -
18.06.2019 13:00:00 22,5 17,6 9 5 22 12 S 0,0
18.06.2019 12:00:00 21,8 17,6 9 5 19 11 S 0,0
18.06.2019 11:00:00 21,5 17,7 9 5 18 10 S 0,0
18.06.2019 10:00:00 21,9 16,6 3 2 7 4 SSE 0,0
18.06.2019 09:00:00 19,8 15,0 3 2 7 4 NNW 0,0
18.06.2019 08:00:00 17,8 13,1 1 0 9 5 NNE -
18.06.2019 07:00:00 17,2 12,5 1 1 4 2 NNE 0,0
18.06.2019 06:00:00 17,4 12,3 1 1 5 3 N 0,0
18.06.2019 05:00:00 17,7 12,6 0 0 4 2 WSW 0,0
18.06.2019 04:00:00 18,1 13,0 1 1 10 5 NNE 0,0
18.06.2019 03:00:00 18,4 13,5 2 1 9 5 N 0,0
18.06.2019 02:00:00 18,6 16,4 2 1 7 4 WNW -
18.06.2019 01:00:00 20,3 18,1 1 0 7 4 SSE 0,0
18.06.2019 00:00:00 20,7 18,3 3 2 10 5 S 0,0
17.06.2019 23:00:00 20,9 18,3 4 2 12 6 SSE 0,0
17.06.2019 22:00:00 21,0 17,6 4 2 11 6 SSE 0,0
17.06.2019 21:00:00 21,5 17,5 7 4 15 8 SSE 0,0
17.06.2019 20:00:00 21,5 17,1 10 5 18 10 S -
17.06.2019 19:00:00 21,8 17,2 11 6 21 12 S 0,0
17.06.2019 18:00:00 22,7 17,6 6 4 23 12 S 0,0
17.06.2019 17:00:00 22,5 17,4 9 5 28 15 SW 0,0
17.06.2019 16:00:00 22,8 17,9 9 5 25 14 SSW 0,0
17.06.2019 15:00:00 22,2 17,1 8 5 24 13 SSW 0,0
17.06.2019 14:00:00 22,7 17,4 10 5 22 12 S -
17.06.2019 13:00:00 22,3 17,4 8 4 19 11 SSW 0,0
17.06.2019 12:00:00 22,0 17,6 8 4 20 11 SSW 0,0
17.06.2019 11:00:00 21,4 16,8 9 5 18 10 SW 0,0
17.06.2019 10:00:00 22,0 15,8 4 2 10 6 SSE 0,0
17.06.2019 09:00:00 20,1 15,1 1 0 3 2 SSE 0,0
17.06.2019 08:00:00 17,2 14,1 0 0 3 2 W -
17.06.2019 07:00:00 16,8 13,9 1 1 4 2 N 0,0
17.06.2019 06:00:00 17,0 13,9 1 1 5 3 NE 0,0
17.06.2019 05:00:00 17,6 14,3 2 1 5 3 NE 0,0
17.06.2019 04:00:00 18,2 14,7 1 0 5 3 NNE 0,0
17.06.2019 03:00:00 18,6 15,1 3 2 7 4 N 0,0
17.06.2019 02:00:00 19,2 15,7 2 1 8 5 N -
17.06.2019 01:00:00 19,8 16,3 2 1 9 5 NW 0,0
17.06.2019 00:00:00 20,2 16,4 4 2 12 7 N 0,0
16.06.2019 23:00:00 20,6 16,6 5 3 13 7 NNE 0,0
16.06.2019 22:00:00 21,1 16,9 7 4 17 9 NNE 0,0
16.06.2019 21:00:00 21,6 16,3 6 4 15 8 NE 0,0
16.06.2019 20:00:00 22,5 16,3 9 5 21 11 NNE -
16.06.2019 19:00:00 23,1 16,9 6 3 25 14 NNE 0,0
16.06.2019 18:00:00 23,1 16,4 6 3 25 13 NNE 0,0
16.06.2019 17:00:00 23,0 16,8 8 4 26 14 NNE 0,0
16.06.2019 16:00:00 22,5 16,3 10 5 25 13 NE 0,0
16.06.2019 15:00:00 22,6 16,4 8 4 24 13 NE 0,0
16.06.2019 14:00:00 22,9 16,2 10 5 28 15 NE -
16.06.2019 13:00:00 23,0 16,3 12 6 27 15 ENE 0,0
16.06.2019 12:00:00 23,4 16,2 10 5 28 15 NNE 0,0
16.06.2019 11:00:00 22,8 15,9 8 4 21 11 NE 0,0
16.06.2019 10:00:00 22,4 14,3 6 3 18 10 NNE 0,0
16.06.2019 09:00:00 21,5 13,2 6 3 9 5 N 0,0
16.06.2019 08:00:00 18,7 13,1 4 2 9 5 N -
16.06.2019 07:00:00 17,9 12,4 4 2 7 4 NNE 0,0
16.06.2019 06:00:00 17,7 11,5 4 2 8 5 NE 0,0
16.06.2019 05:00:00 18,1 11,2 3 2 11 6 N 0,0
16.06.2019 04:00:00 18,3 9,6 5 3 11 6 NNW 0,0
16.06.2019 03:00:00 18,6 9,4 4 2 8 4 NW 0,0
16.06.2019 02:00:00 18,8 11,1 2 1 5 3 NW -
16.06.2019 01:00:00 18,4 13,7 1 1 4 2 W 0,0
16.06.2019 00:00:00 20,6 16,6 2 1 8 5 S 0,0
15.06.2019 23:00:00 21,0 16,2 4 2 10 5 S 0,0
15.06.2019 22:00:00 21,5 16,0 4 2 13 7 S 0,0
15.06.2019 21:00:00 22,4 13,5 5 3 13 7 SSE 0,0
15.06.2019 20:00:00 22,9 11,9 6 3 16 9 SSE -
15.06.2019 19:00:00 23,9 13,5 5 3 23 12 SSW 0,0
15.06.2019 18:00:00 23,0 15,1 8 4 30 16 SSW 0,0
15.06.2019 17:00:00 22,3 15,6 11 6 28 15 SW 0,0
15.06.2019 16:00:00 22,4 15,3 13 7 29 16 SW 0,0
15.06.2019 15:00:00 22,0 15,1 16 8 29 16 SSW 0,0
15.06.2019 14:00:00 22,2 14,8 14 7 23 12 SSW -
15.06.2019 13:00:00 23,0 13,8 11 6 22 12 S 0,0
15.06.2019 12:00:00 23,1 15,7 7 4 19 11 SSE 0,0
15.06.2019 11:00:00 25,9 8,4 3 2 14 7 NNE 0,0
15.06.2019 10:00:00 23,8 11,5 4 2 10 5 N 0,0
15.06.2019 09:00:00 21,7 14,1 1 0 8 5 NNE 0,0
15.06.2019 08:00:00 19,0 16,0 0 0 3 2 N -
15.06.2019 07:00:00 18,9 15,8 1 0 5 3 NNW 0,0
15.06.2019 06:00:00 19,9 16,7 1 1 19 11 S 0,0
15.06.2019 05:00:00 20,1 17,1 8 4 14 8 S 0,0
15.06.2019 04:00:00 20,5 17,3 5 3 11 6 S 0,0
15.06.2019 03:00:00 20,4 17,0 3 2 11 6 S 0,0
15.06.2019 02:00:00 20,4 17,0 7 4 16 9 S -
15.06.2019 01:00:00 20,6 16,4 2 1 22 12 S 0,0
15.06.2019 00:00:00 20,9 15,9 11 6 28 15 S 0,0
14.06.2019 23:00:00 20,8 15,1 17 9 35 19 SSW 0,0
14.06.2019 22:00:00 20,8 15,4 9 5 33 18 SW 0,0
14.06.2019 21:00:00 20,9 14,5 14 7 46 25 SSW 0,0
14.06.2019 20:00:00 21,6 14,5 22 12 44 24 S -
14.06.2019 19:00:00 22,1 14,5 24 13 54 29 S 0,1
14.06.2019 18:00:00 22,2 14,3 22 12 43 23 SSW 0,0
14.06.2019 17:00:00 22,5 14,6 23 13 50 27 S 0,1
14.06.2019 16:00:00 22,2 14,3 25 13 43 23 SSW 0,0
14.06.2019 15:00:00 22,0 16,1 20 11 38 21 S 0,0
14.06.2019 14:00:00 22,3 17,9 15 8 30 16 SSW -

tt = temperature
td = dewpoint
ff = wind speed
fx = gusts
dd = wind direction
rr = precipitation

Next stations